sensor_id;sensor_type;location;lat;lon;timestamp;pressure;altitude;pressure_sealevel;temperature
15626;BMP180;7912;51.376;6.126;2023-07-20T01:36:45;101093.00;;;20.00
15626;BMP180;7912;51.376;6.126;2023-07-20T01:39:45;101084.00;;;20.10
15626;BMP180;7912;51.376;6.126;2023-07-20T01:42:51;101084.00;;;20.10
15626;BMP180;7912;51.376;6.126;2023-07-20T01:45:21;101089.00;;;20.20
15626;BMP180;7912;51.376;6.126;2023-07-20T01:48:02;101080.00;;;20.10
15626;BMP180;7912;51.376;6.126;2023-07-20T02:11:34;101087.00;;;19.90
15626;BMP180;7912;51.376;6.126;2023-07-20T03:06:00;101128.00;;;19.60
15626;BMP180;7912;51.376;6.126;2023-07-20T03:08:28;101130.00;;;19.70
15626;BMP180;7912;51.376;6.126;2023-07-20T03:10:55;101121.00;;;19.70
15626;BMP180;7912;51.376;6.126;2023-07-20T03:17:26;101126.00;;;19.70
15626;BMP180;7912;51.376;6.126;2023-07-20T03:20:15;101129.00;;;19.70
15626;BMP180;7912;51.376;6.126;2023-07-20T03:22:43;101125.00;;;19.70
15626;BMP180;7912;51.376;6.126;2023-07-20T03:25:13;101132.00;;;19.70
15626;BMP180;7912;51.376;6.126;2023-07-20T03:27:41;101125.00;;;19.70
15626;BMP180;7912;51.376;6.126;2023-07-20T03:30:09;101130.00;;;19.70
15626;BMP180;7912;51.376;6.126;2023-07-20T03:32:38;101132.00;;;19.70
15626;BMP180;7912;51.376;6.126;2023-07-20T03:35:06;101148.00;;;19.70
15626;BMP180;7912;51.376;6.126;2023-07-20T03:37:33;101135.00;;;19.70
15626;BMP180;7912;51.376;6.126;2023-07-20T03:40:03;101141.00;;;19.80
15626;BMP180;7912;51.376;6.126;2023-07-20T03:42:31;101139.00;;;19.80
15626;BMP180;7912;51.376;6.126;2023-07-20T03:44:59;101146.00;;;19.80
15626;BMP180;7912;51.376;6.126;2023-07-20T03:47:26;101142.00;;;19.90
15626;BMP180;7912;51.376;6.126;2023-07-20T03:49:53;101139.00;;;19.90
15626;BMP180;7912;51.376;6.126;2023-07-20T03:52:21;101139.00;;;19.90
15626;BMP180;7912;51.376;6.126;2023-07-20T03:54:49;101131.00;;;19.90
15626;BMP180;7912;51.376;6.126;2023-07-20T03:57:18;101146.00;;;19.90
15626;BMP180;7912;51.376;6.126;2023-07-20T03:59:46;101139.00;;;19.90
15626;BMP180;7912;51.376;6.126;2023-07-20T04:02:13;101149.00;;;20.00
15626;BMP180;7912;51.376;6.126;2023-07-20T04:04:41;101143.00;;;20.00
15626;BMP180;7912;51.376;6.126;2023-07-20T04:07:08;101150.00;;;20.00
15626;BMP180;7912;51.376;6.126;2023-07-20T04:09:35;101151.00;;;20.10
15626;BMP180;7912;51.376;6.126;2023-07-20T04:12:03;101146.00;;;20.10
15626;BMP180;7912;51.376;6.126;2023-07-20T04:14:31;101151.00;;;20.10
15626;BMP180;7912;51.376;6.126;2023-07-20T04:16:58;101165.00;;;20.10
15626;BMP180;7912;51.376;6.126;2023-07-20T04:19:30;101155.00;;;20.10
15626;BMP180;7912;51.376;6.126;2023-07-20T04:21:58;101163.00;;;20.20
15626;BMP180;7912;51.376;6.126;2023-07-20T04:24:25;101157.00;;;20.10
15626;BMP180;7912;51.376;6.126;2023-07-20T04:26:55;101156.00;;;20.20
15626;BMP180;7912;51.376;6.126;2023-07-20T04:29:23;101160.00;;;20.20
15626;BMP180;7912;51.376;6.126;2023-07-20T04:31:50;101164.00;;;20.20
15626;BMP180;7912;51.376;6.126;2023-07-20T04:34:18;101156.00;;;20.30
15626;BMP180;7912;51.376;6.126;2023-07-20T04:36:45;101162.00;;;20.30
15626;BMP180;7912;51.376;6.126;2023-07-20T04:39:13;101165.00;;;20.30
15626;BMP180;7912;51.376;6.126;2023-07-20T04:41:57;101164.00;;;20.40
15626;BMP180;7912;51.376;6.126;2023-07-20T04:44:25;101161.00;;;20.40
15626;BMP180;7912;51.376;6.126;2023-07-20T04:46:52;101151.00;;;20.50
15626;BMP180;7912;51.376;6.126;2023-07-20T04:49:20;101161.00;;;20.60
15626;BMP180;7912;51.376;6.126;2023-07-20T04:51:47;101159.00;;;20.60
15626;BMP180;7912;51.376;6.126;2023-07-20T04:54:15;101157.00;;;20.60
15626;BMP180;7912;51.376;6.126;2023-07-20T04:56:43;101160.00;;;20.60
15626;BMP180;7912;51.376;6.126;2023-07-20T04:59:11;101173.00;;;20.60
15626;BMP180;7912;51.376;6.126;2023-07-20T05:01:39;101170.00;;;20.70
15626;BMP180;7912;51.376;6.126;2023-07-20T05:04:07;101175.00;;;20.70
15626;BMP180;7912;51.376;6.126;2023-07-20T05:06:35;101172.00;;;20.70
15626;BMP180;7912;51.376;6.126;2023-07-20T05:09:03;101167.00;;;20.80
15626;BMP180;7912;51.376;6.126;2023-07-20T05:11:31;101158.00;;;20.80
15626;BMP180;7912;51.376;6.126;2023-07-20T05:14:01;101163.00;;;20.90
15626;BMP180;7912;51.376;6.126;2023-07-20T05:16:28;101174.00;;;20.90
15626;BMP180;7912;51.376;6.126;2023-07-20T05:18:56;101164.00;;;20.80
15626;BMP180;7912;51.376;6.126;2023-07-20T05:21:24;101175.00;;;20.80
15626;BMP180;7912;51.376;6.126;2023-07-20T05:23:51;101177.00;;;20.80
15626;BMP180;7912;51.376;6.126;2023-07-20T05:26:21;101177.00;;;20.80
15626;BMP180;7912;51.376;6.126;2023-07-20T05:28:52;101174.00;;;21.00
15626;BMP180;7912;51.376;6.126;2023-07-20T05:31:22;101187.00;;;21.00
15626;BMP180;7912;51.376;6.126;2023-07-20T05:33:49;101185.00;;;21.20
15626;BMP180;7912;51.376;6.126;2023-07-20T05:36:17;101180.00;;;21.20
15626;BMP180;7912;51.376;6.126;2023-07-20T05:38:45;101179.00;;;21.30
15626;BMP180;7912;51.376;6.126;2023-07-20T05:41:12;101187.00;;;21.40
15626;BMP180;7912;51.376;6.126;2023-07-20T05:43:40;101172.00;;;21.50
15626;BMP180;7912;51.376;6.126;2023-07-20T05:46:09;101173.00;;;21.60
15626;BMP180;7912;51.376;6.126;2023-07-20T05:48:37;101179.00;;;21.70
15626;BMP180;7912;51.376;6.126;2023-07-20T05:51:04;101176.00;;;21.80
15626;BMP180;7912;51.376;6.126;2023-07-20T05:53:32;101179.00;;;21.90
15626;BMP180;7912;51.376;6.126;2023-07-20T05:56:03;101164.00;;;22.00
15626;BMP180;7912;51.376;6.126;2023-07-20T05:58:31;101164.00;;;22.00
15626;BMP180;7912;51.376;6.126;2023-07-20T06:00:58;101178.00;;;21.90
15626;BMP180;7912;51.376;6.126;2023-07-20T06:03:26;101163.00;;;22.00
15626;BMP180;7912;51.376;6.126;2023-07-20T06:06:02;101177.00;;;21.90
15626;BMP180;7912;51.376;6.126;2023-07-20T06:08:31;101179.00;;;21.90
15626;BMP180;7912;51.376;6.126;2023-07-20T06:10:59;101176.00;;;21.90
15626;BMP180;7912;51.376;6.126;2023-07-20T06:13:26;101187.00;;;22.00
15626;BMP180;7912;51.376;6.126;2023-07-20T06:15:57;101174.00;;;22.10
15626;BMP180;7912;51.376;6.126;2023-07-20T06:18:24;101187.00;;;22.10
15626;BMP180;7912;51.376;6.126;2023-07-20T06:20:52;101189.00;;;22.20
15626;BMP180;7912;51.376;6.126;2023-07-20T06:23:20;101185.00;;;22.20
15626;BMP180;7912;51.376;6.126;2023-07-20T06:25:47;101193.00;;;22.30
15626;BMP180;7912;51.376;6.126;2023-07-20T06:28:15;101194.00;;;22.40
15626;BMP180;7912;51.376;6.126;2023-07-20T06:30:43;101192.00;;;22.50
15626;BMP180;7912;51.376;6.126;2023-07-20T06:33:10;101200.00;;;22.60
15626;BMP180;7912;51.376;6.126;2023-07-20T06:35:42;101198.00;;;22.70
15626;BMP180;7912;51.376;6.126;2023-07-20T06:38:10;101206.00;;;22.70
15626;BMP180;7912;51.376;6.126;2023-07-20T06:40:40;101205.00;;;22.70
15626;BMP180;7912;51.376;6.126;2023-07-20T06:43:08;101206.00;;;22.60
15626;BMP180;7912;51.376;6.126;2023-07-20T06:45:38;101214.00;;;22.50
15626;BMP180;7912;51.376;6.126;2023-07-20T06:48:06;101207.00;;;22.50
15626;BMP180;7912;51.376;6.126;2023-07-20T06:50:33;101213.00;;;22.60
15626;BMP180;7912;51.376;6.126;2023-07-20T06:53:03;101214.00;;;22.60
15626;BMP180;7912;51.376;6.126;2023-07-20T06:55:31;101211.00;;;22.60
15626;BMP180;7912;51.376;6.126;2023-07-20T06:58:07;101217.00;;;22.40
15626;BMP180;7912;51.376;6.126;2023-07-20T07:00:35;101210.00;;;22.40
15626;BMP180;7912;51.376;6.126;2023-07-20T07:03:02;101216.00;;;22.30
15626;BMP180;7912;51.376;6.126;2023-07-20T07:05:30;101228.00;;;22.30
15626;BMP180;7912;51.376;6.126;2023-07-20T07:08:01;101217.00;;;22.40
15626;BMP180;7912;51.376;6.126;2023-07-20T07:10:29;101228.00;;;22.60
15626;BMP180;7912;51.376;6.126;2023-07-20T07:12:58;101219.00;;;22.80
15626;BMP180;7912;51.376;6.126;2023-07-20T07:15:26;101217.00;;;22.90
15626;BMP180;7912;51.376;6.126;2023-07-20T07:17:55;101215.00;;;23.10
15626;BMP180;7912;51.376;6.126;2023-07-20T07:20:23;101227.00;;;23.30
15626;BMP180;7912;51.376;6.126;2023-07-20T07:22:51;101228.00;;;23.40
15626;BMP180;7912;51.376;6.126;2023-07-20T07:25:19;101221.00;;;23.30
15626;BMP180;7912;51.376;6.126;2023-07-20T07:27:50;101225.00;;;23.20
15626;BMP180;7912;51.376;6.126;2023-07-20T07:30:19;101210.00;;;23.00
15626;BMP180;7912;51.376;6.126;2023-07-20T07:32:48;101226.00;;;22.90
15626;BMP180;7912;51.376;6.126;2023-07-20T07:35:42;101233.00;;;22.80
15626;BMP180;7912;51.376;6.126;2023-07-20T07:38:12;101230.00;;;23.10
15626;BMP180;7912;51.376;6.126;2023-07-20T07:40:45;101212.00;;;23.90
15626;BMP180;7912;51.376;6.126;2023-07-20T07:43:13;101222.00;;;24.70
15626;BMP180;7912;51.376;6.126;2023-07-20T07:45:44;101211.00;;;25.30
15626;BMP180;7912;51.376;6.126;2023-07-20T07:48:11;101214.00;;;25.70
15626;BMP180;7912;51.376;6.126;2023-07-20T07:50:39;101229.00;;;26.20
15626;BMP180;7912;51.376;6.126;2023-07-20T07:53:13;101218.00;;;26.40
15626;BMP180;7912;51.376;6.126;2023-07-20T07:55:41;101239.00;;;26.20
15626;BMP180;7912;51.376;6.126;2023-07-20T07:58:09;101246.00;;;25.90
15626;BMP180;7912;51.376;6.126;2023-07-20T08:00:39;101240.00;;;25.60
15626;BMP180;7912;51.376;6.126;2023-07-20T08:03:07;101251.00;;;25.30
15626;BMP180;7912;51.376;6.126;2023-07-20T08:05:36;101240.00;;;25.00
15626;BMP180;7912;51.376;6.126;2023-07-20T08:08:07;101247.00;;;24.90
15626;BMP180;7912;51.376;6.126;2023-07-20T08:10:36;101255.00;;;25.50
15626;BMP180;7912;51.376;6.126;2023-07-20T08:13:04;101256.00;;;26.50
15626;BMP180;7912;51.376;6.126;2023-07-20T08:15:32;101240.00;;;27.50
15626;BMP180;7912;51.376;6.126;2023-07-20T08:18:02;101243.00;;;28.30
15626;BMP180;7912;51.376;6.126;2023-07-20T08:20:33;101232.00;;;28.90
15626;BMP180;7912;51.376;6.126;2023-07-20T08:23:03;101245.00;;;29.10
15626;BMP180;7912;51.376;6.126;2023-07-20T08:25:33;101254.00;;;29.00
15626;BMP180;7912;51.376;6.126;2023-07-20T08:28:03;101246.00;;;28.80
15626;BMP180;7912;51.376;6.126;2023-07-20T08:30:46;101261.00;;;28.80
15626;BMP180;7912;51.376;6.126;2023-07-20T08:33:18;101257.00;;;28.60
15626;BMP180;7912;51.376;6.126;2023-07-20T08:35:47;101257.00;;;28.40
15626;BMP180;7912;51.376;6.126;2023-07-20T08:38:17;101252.00;;;28.50
15626;BMP180;7912;51.376;6.126;2023-07-20T08:40:46;101259.00;;;28.90
15626;BMP180;7912;51.376;6.126;2023-07-20T08:43:14;101257.00;;;29.20
15626;BMP180;7912;51.376;6.126;2023-07-20T08:45:48;101241.00;;;29.50
15626;BMP180;7912;51.376;6.126;2023-07-20T08:48:20;101250.00;;;29.80
15626;BMP180;7912;51.376;6.126;2023-07-20T08:50:54;101245.00;;;30.00
15626;BMP180;7912;51.376;6.126;2023-07-20T08:53:23;101246.00;;;30.10
15626;BMP180;7912;51.376;6.126;2023-07-20T08:55:54;101242.00;;;30.40
15626;BMP180;7912;51.376;6.126;2023-07-20T08:58:24;101244.00;;;30.70
15626;BMP180;7912;51.376;6.126;2023-07-20T09:00:54;101245.00;;;30.80
15626;BMP180;7912;51.376;6.126;2023-07-20T09:03:22;101250.00;;;30.50
15626;BMP180;7912;51.376;6.126;2023-07-20T09:05:50;101249.00;;;29.90
15626;BMP180;7912;51.376;6.126;2023-07-20T09:08:25;101253.00;;;29.30
15626;BMP180;7912;51.376;6.126;2023-07-20T09:10:59;101261.00;;;28.80
15626;BMP180;7912;51.376;6.126;2023-07-20T09:13:29;101261.00;;;28.30
15626;BMP180;7912;51.376;6.126;2023-07-20T09:15:58;101256.00;;;28.00
15626;BMP180;7912;51.376;6.126;2023-07-20T09:18:30;101260.00;;;28.20
15626;BMP180;7912;51.376;6.126;2023-07-20T09:21:03;101254.00;;;28.70
15626;BMP180;7912;51.376;6.126;2023-07-20T09:23:36;101243.00;;;29.30
15626;BMP180;7912;51.376;6.126;2023-07-20T09:26:14;101252.00;;;29.70
15626;BMP180;7912;51.376;6.126;2023-07-20T09:28:48;101246.00;;;30.10
15626;BMP180;7912;51.376;6.126;2023-07-20T09:31:19;101241.00;;;30.50
15626;BMP180;7912;51.376;6.126;2023-07-20T09:33:52;101244.00;;;31.10
15626;BMP180;7912;51.376;6.126;2023-07-20T09:36:27;101228.00;;;31.70
15626;BMP180;7912;51.376;6.126;2023-07-20T09:38:59;101230.00;;;32.00
15626;BMP180;7912;51.376;6.126;2023-07-20T09:41:39;101232.00;;;31.90
15626;BMP180;7912;51.376;6.126;2023-07-20T09:44:15;101228.00;;;31.80
15626;BMP180;7912;51.376;6.126;2023-07-20T09:46:53;101228.00;;;32.20
15626;BMP180;7912;51.376;6.126;2023-07-20T09:49:24;101241.00;;;32.50
15626;BMP180;7912;51.376;6.126;2023-07-20T09:52:02;101228.00;;;32.10
15626;BMP180;7912;51.376;6.126;2023-07-20T09:54:31;101228.00;;;31.90
15626;BMP180;7912;51.376;6.126;2023-07-20T09:57:07;101228.00;;;31.30
15626;BMP180;7912;51.376;6.126;2023-07-20T10:00:20;101239.00;;;30.50
15626;BMP180;7912;51.376;6.126;2023-07-20T10:02:55;101231.00;;;30.30
15626;BMP180;7912;51.376;6.126;2023-07-20T10:05:28;101235.00;;;30.90
15626;BMP180;7912;51.376;6.126;2023-07-20T10:08:07;101218.00;;;32.00
15626;BMP180;7912;51.376;6.126;2023-07-20T10:10:42;101222.00;;;33.10
15626;BMP180;7912;51.376;6.126;2023-07-20T10:13:22;101220.00;;;34.00
15626;BMP180;7912;51.376;6.126;2023-07-20T10:15:59;101220.00;;;34.20
15626;BMP180;7912;51.376;6.126;2023-07-20T10:19:15;101225.00;;;33.80
15626;BMP180;7912;51.376;6.126;2023-07-20T10:21:58;101221.00;;;33.20
15626;BMP180;7912;51.376;6.126;2023-07-20T10:24:32;101225.00;;;32.70
15626;BMP180;7912;51.376;6.126;2023-07-20T10:27:03;101218.00;;;32.40
15626;BMP180;7912;51.376;6.126;2023-07-20T10:29:32;101218.00;;;32.40
15626;BMP180;7912;51.376;6.126;2023-07-20T10:32:02;101211.00;;;32.50
15626;BMP180;7912;51.376;6.126;2023-07-20T10:34:30;101208.00;;;32.90
15626;BMP180;7912;51.376;6.126;2023-07-20T10:36:59;101213.00;;;33.50
15626;BMP180;7912;51.376;6.126;2023-07-20T10:39:32;101203.00;;;33.70
15626;BMP180;7912;51.376;6.126;2023-07-20T10:42:07;101199.00;;;34.20
15626;BMP180;7912;51.376;6.126;2023-07-20T10:48:26;101190.00;;;35.80
15626;BMP180;7912;51.376;6.126;2023-07-20T10:51:20;101191.00;;;36.30
15626;BMP180;7912;51.376;6.126;2023-07-20T10:53:51;101187.00;;;36.70
15626;BMP180;7912;51.376;6.126;2023-07-20T10:56:22;101179.00;;;37.10
15626;BMP180;7912;51.376;6.126;2023-07-20T10:58:59;101168.00;;;37.50
15626;BMP180;7912;51.376;6.126;2023-07-20T11:01:35;101175.00;;;38.00
15626;BMP180;7912;51.376;6.126;2023-07-20T11:07:38;101180.00;;;37.60
15626;BMP180;7912;51.376;6.126;2023-07-20T11:10:15;101186.00;;;36.70
15626;BMP180;7912;51.376;6.126;2023-07-20T11:13:29;101191.00;;;36.10
15626;BMP180;7912;51.376;6.126;2023-07-20T11:18:33;101187.00;;;35.70
15626;BMP180;7912;51.376;6.126;2023-07-20T11:21:15;101195.00;;;35.30
15626;BMP180;7912;51.376;6.126;2023-07-20T11:23:58;101191.00;;;34.60
15626;BMP180;7912;51.376;6.126;2023-07-20T11:30:18;101205.00;;;33.00
15626;BMP180;7912;51.376;6.126;2023-07-20T11:33:00;101189.00;;;32.50
15626;BMP180;7912;51.376;6.126;2023-07-20T11:35:27;101197.00;;;32.10
15626;BMP180;7912;51.376;6.126;2023-07-20T11:37:55;101202.00;;;31.80
15626;BMP180;7912;51.376;6.126;2023-07-20T11:40:23;101192.00;;;31.60
15626;BMP180;7912;51.376;6.126;2023-07-20T11:43:30;101190.00;;;31.40
15626;BMP180;7912;51.376;6.126;2023-07-20T11:49:47;101192.00;;;30.80
15626;BMP180;7912;51.376;6.126;2023-07-20T11:52:35;101187.00;;;30.60
15626;BMP180;7912;51.376;6.126;2023-07-20T11:59:32;101198.00;;;30.90
15626;BMP180;7912;51.376;6.126;2023-07-20T12:02:32;101181.00;;;31.10
15626;BMP180;7912;51.376;6.126;2023-07-20T12:05:01;101179.00;;;31.30
15626;BMP180;7912;51.376;6.126;2023-07-20T12:07:32;101184.00;;;31.50
15626;BMP180;7912;51.376;6.126;2023-07-20T12:10:11;101186.00;;;31.40
15626;BMP180;7912;51.376;6.126;2023-07-20T12:12:42;101183.00;;;31.20
15626;BMP180;7912;51.376;6.126;2023-07-20T12:15:48;101178.00;;;30.90
15626;BMP180;7912;51.376;6.126;2023-07-20T12:18:34;101170.00;;;30.90
15626;BMP180;7912;51.376;6.126;2023-07-20T12:21:09;101178.00;;;31.00
15626;BMP180;7912;51.376;6.126;2023-07-20T12:24:02;101176.00;;;31.00
15626;BMP180;7912;51.376;6.126;2023-07-20T12:26:37;101181.00;;;30.80
15626;BMP180;7912;51.376;6.126;2023-07-20T12:29:10;101177.00;;;30.50
15626;BMP180;7912;51.376;6.126;2023-07-20T12:31:47;101173.00;;;30.40
15626;BMP180;7912;51.376;6.126;2023-07-20T12:34:23;101182.00;;;30.50
15626;BMP180;7912;51.376;6.126;2023-07-20T12:36:58;101171.00;;;30.40
15626;BMP180;7912;51.376;6.126;2023-07-20T12:39:29;101177.00;;;30.50
15626;BMP180;7912;51.376;6.126;2023-07-20T12:41:56;101169.00;;;30.50
15626;BMP180;7912;51.376;6.126;2023-07-20T12:44:37;101177.00;;;30.60
15626;BMP180;7912;51.376;6.126;2023-07-20T12:47:10;101166.00;;;30.80
15626;BMP180;7912;51.376;6.126;2023-07-20T12:49:39;101167.00;;;31.30
15626;BMP180;7912;51.376;6.126;2023-07-20T12:52:15;101152.00;;;32.00
15626;BMP180;7912;51.376;6.126;2023-07-20T12:54:43;101162.00;;;32.60
15626;BMP180;7912;51.376;6.126;2023-07-20T12:57:15;101164.00;;;32.70
15626;BMP180;7912;51.376;6.126;2023-07-20T12:59:44;101156.00;;;32.60
15626;BMP180;7912;51.376;6.126;2023-07-20T13:02:11;101157.00;;;32.70
15626;BMP180;7912;51.376;6.126;2023-07-20T13:04:39;101158.00;;;32.70
15626;BMP180;7912;51.376;6.126;2023-07-20T13:07:13;101157.00;;;32.60
15626;BMP180;7912;51.376;6.126;2023-07-20T13:09:44;101155.00;;;32.40
15626;BMP180;7912;51.376;6.126;2023-07-20T13:16:06;101164.00;;;31.60
15626;BMP180;7912;51.376;6.126;2023-07-20T13:18:43;101158.00;;;31.70
15626;BMP180;7912;51.376;6.126;2023-07-20T13:21:10;101148.00;;;32.00
15626;BMP180;7912;51.376;6.126;2023-07-20T13:23:42;101141.00;;;32.30
15626;BMP180;7912;51.376;6.126;2023-07-20T13:26:33;101150.00;;;32.60
15626;BMP180;7912;51.376;6.126;2023-07-20T13:29:04;101139.00;;;32.70
15626;BMP180;7912;51.376;6.126;2023-07-20T13:31:31;101140.00;;;33.10
15626;BMP180;7912;51.376;6.126;2023-07-20T13:34:02;101138.00;;;33.50
15626;BMP180;7912;51.376;6.126;2023-07-20T13:36:30;101137.00;;;33.80
15626;BMP180;7912;51.376;6.126;2023-07-20T13:38:58;101127.00;;;34.40
15626;BMP180;7912;51.376;6.126;2023-07-20T13:41:26;101123.00;;;34.90
15626;BMP180;7912;51.376;6.126;2023-07-20T13:43:56;101122.00;;;35.50
15626;BMP180;7912;51.376;6.126;2023-07-20T13:46:47;101119.00;;;35.50
15626;BMP180;7912;51.376;6.126;2023-07-20T13:49:18;101109.00;;;35.30
15626;BMP180;7912;51.376;6.126;2023-07-20T13:51:49;101118.00;;;35.30
15626;BMP180;7912;51.376;6.126;2023-07-20T13:54:37;101114.00;;;35.20
15626;BMP180;7912;51.376;6.126;2023-07-20T13:57:13;101112.00;;;35.10
15626;BMP180;7912;51.376;6.126;2023-07-20T13:59:43;101109.00;;;34.90
15626;BMP180;7912;51.376;6.126;2023-07-20T14:02:11;101123.00;;;34.80
15626;BMP180;7912;51.376;6.126;2023-07-20T14:05:04;101116.00;;;34.40
15626;BMP180;7912;51.376;6.126;2023-07-20T14:07:34;101109.00;;;34.00
15626;BMP180;7912;51.376;6.126;2023-07-20T14:10:02;101115.00;;;33.80
15626;BMP180;7912;51.376;6.126;2023-07-20T14:12:39;101113.00;;;33.60
15626;BMP180;7912;51.376;6.126;2023-07-20T14:15:07;101111.00;;;33.50
15626;BMP180;7912;51.376;6.126;2023-07-20T14:17:35;101114.00;;;33.50
15626;BMP180;7912;51.376;6.126;2023-07-20T14:20:05;101114.00;;;33.50
15626;BMP180;7912;51.376;6.126;2023-07-20T14:22:48;101103.00;;;33.40
15626;BMP180;7912;51.376;6.126;2023-07-20T14:25:17;101100.00;;;33.60
15626;BMP180;7912;51.376;6.126;2023-07-20T14:27:46;101093.00;;;34.10
15626;BMP180;7912;51.376;6.126;2023-07-20T14:30:13;101090.00;;;34.60
15626;BMP180;7912;51.376;6.126;2023-07-20T14:32:41;101085.00;;;34.60
15626;BMP180;7912;51.376;6.126;2023-07-20T14:35:09;101085.00;;;34.40
15626;BMP180;7912;51.376;6.126;2023-07-20T14:37:37;101080.00;;;34.50
15626;BMP180;7912;51.376;6.126;2023-07-20T14:40:05;101078.00;;;34.90
15626;BMP180;7912;51.376;6.126;2023-07-20T14:42:36;101083.00;;;35.00
15626;BMP180;7912;51.376;6.126;2023-07-20T14:45:05;101081.00;;;35.20
15626;BMP180;7912;51.376;6.126;2023-07-20T14:47:35;101084.00;;;35.20
15626;BMP180;7912;51.376;6.126;2023-07-20T14:50:06;101072.00;;;35.00
15626;BMP180;7912;51.376;6.126;2023-07-20T14:52:52;101076.00;;;34.90
15626;BMP180;7912;51.376;6.126;2023-07-20T14:55:20;101070.00;;;34.90
15626;BMP180;7912;51.376;6.126;2023-07-20T14:57:48;101075.00;;;35.10
15626;BMP180;7912;51.376;6.126;2023-07-20T15:00:16;101070.00;;;35.00
15626;BMP180;7912;51.376;6.126;2023-07-20T15:02:47;101071.00;;;34.90
15626;BMP180;7912;51.376;6.126;2023-07-20T15:05:23;101075.00;;;34.70
15626;BMP180;7912;51.376;6.126;2023-07-20T15:08:30;101071.00;;;34.60
15626;BMP180;7912;51.376;6.126;2023-07-20T15:10:58;101067.00;;;34.60
15626;BMP180;7912;51.376;6.126;2023-07-20T15:13:26;101063.00;;;34.60
15626;BMP180;7912;51.376;6.126;2023-07-20T15:15:54;101065.00;;;34.50
15626;BMP180;7912;51.376;6.126;2023-07-20T15:18:22;101069.00;;;34.50
15626;BMP180;7912;51.376;6.126;2023-07-20T15:21:07;101063.00;;;34.60
15626;BMP180;7912;51.376;6.126;2023-07-20T15:23:35;101070.00;;;34.40
15626;BMP180;7912;51.376;6.126;2023-07-20T15:26:03;101060.00;;;34.30
15626;BMP180;7912;51.376;6.126;2023-07-20T15:28:32;101063.00;;;34.00
15626;BMP180;7912;51.376;6.126;2023-07-20T15:31:01;101057.00;;;34.00
15626;BMP180;7912;51.376;6.126;2023-07-20T15:33:29;101053.00;;;34.30
15626;BMP180;7912;51.376;6.126;2023-07-20T15:35:57;101056.00;;;34.40
15626;BMP180;7912;51.376;6.126;2023-07-20T15:38:25;101053.00;;;34.80
15626;BMP180;7912;51.376;6.126;2023-07-20T15:40:53;101049.00;;;35.10
15626;BMP180;7912;51.376;6.126;2023-07-20T15:43:22;101041.00;;;35.20
15626;BMP180;7912;51.376;6.126;2023-07-20T15:45:50;101037.00;;;35.20
15626;BMP180;7912;51.376;6.126;2023-07-20T15:48:19;101046.00;;;35.40
15626;BMP180;7912;51.376;6.126;2023-07-20T15:50:49;101035.00;;;35.60
15626;BMP180;7912;51.376;6.126;2023-07-20T15:53:19;101045.00;;;35.80
15626;BMP180;7912;51.376;6.126;2023-07-20T15:55:53;101040.00;;;35.80
15626;BMP180;7912;51.376;6.126;2023-07-20T15:58:23;101032.00;;;35.50
15626;BMP180;7912;51.376;6.126;2023-07-20T16:00:55;101037.00;;;35.00
15626;BMP180;7912;51.376;6.126;2023-07-20T16:03:23;101031.00;;;34.60
15626;BMP180;7912;51.376;6.126;2023-07-20T16:06:07;101030.00;;;34.10
15626;BMP180;7912;51.376;6.126;2023-07-20T16:08:35;101044.00;;;33.70
15626;BMP180;7912;51.376;6.126;2023-07-20T16:11:02;101041.00;;;33.30
15626;BMP180;7912;51.376;6.126;2023-07-20T16:13:30;101034.00;;;32.80
15626;BMP180;7912;51.376;6.126;2023-07-20T16:15:58;101034.00;;;32.40
15626;BMP180;7912;51.376;6.126;2023-07-20T16:18:26;101040.00;;;32.10
15626;BMP180;7912;51.376;6.126;2023-07-20T16:20:57;101031.00;;;31.90
15626;BMP180;7912;51.376;6.126;2023-07-20T16:23:25;101035.00;;;31.60
15626;BMP180;7912;51.376;6.126;2023-07-20T16:25:53;101035.00;;;31.40
15626;BMP180;7912;51.376;6.126;2023-07-20T16:28:20;101035.00;;;31.10
15626;BMP180;7912;51.376;6.126;2023-07-20T16:30:48;101028.00;;;31.00
15626;BMP180;7912;51.376;6.126;2023-07-20T16:33:15;101021.00;;;30.80
15626;BMP180;7912;51.376;6.126;2023-07-20T16:35:43;101027.00;;;30.60
15626;BMP180;7912;51.376;6.126;2023-07-20T16:38:16;101020.00;;;30.40
15626;BMP180;7912;51.376;6.126;2023-07-20T16:40:44;101016.00;;;30.20
15626;BMP180;7912;51.376;6.126;2023-07-20T16:43:15;101012.00;;;30.10
15626;BMP180;7912;51.376;6.126;2023-07-20T16:46:08;101026.00;;;30.00
15626;BMP180;7912;51.376;6.126;2023-07-20T16:48:39;101014.00;;;29.90
15626;BMP180;7912;51.376;6.126;2023-07-20T16:51:10;101023.00;;;29.70
15626;BMP180;7912;51.376;6.126;2023-07-20T16:53:37;101015.00;;;29.50
15626;BMP180;7912;51.376;6.126;2023-07-20T16:56:05;101012.00;;;29.20
15626;BMP180;7912;51.376;6.126;2023-07-20T16:58:32;101015.00;;;29.00
15626;BMP180;7912;51.376;6.126;2023-07-20T17:01:06;101009.00;;;28.90
15626;BMP180;7912;51.376;6.126;2023-07-20T17:03:36;101019.00;;;28.70
15626;BMP180;7912;51.376;6.126;2023-07-20T17:06:04;101021.00;;;28.60
15626;BMP180;7912;51.376;6.126;2023-07-20T17:08:34;101014.00;;;28.50
15626;BMP180;7912;51.376;6.126;2023-07-20T17:11:03;101007.00;;;28.40
15626;BMP180;7912;51.376;6.126;2023-07-20T17:13:30;101010.00;;;28.30
15626;BMP180;7912;51.376;6.126;2023-07-20T17:16:00;101011.00;;;28.20
15626;BMP180;7912;51.376;6.126;2023-07-20T17:18:30;101007.00;;;28.10
15626;BMP180;7912;51.376;6.126;2023-07-20T17:20:58;101016.00;;;28.00
15626;BMP180;7912;51.376;6.126;2023-07-20T17:23:25;101020.00;;;27.90
15626;BMP180;7912;51.376;6.126;2023-07-20T17:25:59;101018.00;;;27.80
15626;BMP180;7912;51.376;6.126;2023-07-20T17:28:33;101013.00;;;27.80
15626;BMP180;7912;51.376;6.126;2023-07-20T17:31:03;101006.00;;;27.70
15626;BMP180;7912;51.376;6.126;2023-07-20T17:33:31;101009.00;;;27.70
15626;BMP180;7912;51.376;6.126;2023-07-20T17:35:59;101009.00;;;27.70
15626;BMP180;7912;51.376;6.126;2023-07-20T17:38:31;101011.00;;;27.60
15626;BMP180;7912;51.376;6.126;2023-07-20T17:41:02;101009.00;;;27.50
15626;BMP180;7912;51.376;6.126;2023-07-20T17:43:32;101001.00;;;27.40
15626;BMP180;7912;51.376;6.126;2023-07-20T17:45:59;101011.00;;;27.30
15626;BMP180;7912;51.376;6.126;2023-07-20T17:48:30;101002.00;;;27.20
15626;BMP180;7912;51.376;6.126;2023-07-20T17:51:02;100994.00;;;27.10
15626;BMP180;7912;51.376;6.126;2023-07-20T17:53:29;100997.00;;;27.10